sensor_id;sensor_type;location;lat;lon;timestamp;temperature;humidity
4090;DHT22;2059;48.538;12.146;2022-11-14T00:02:32;7.40;99.90
4090;DHT22;2059;48.538;12.146;2022-11-14T00:07:34;7.20;99.90
4090;DHT22;2059;48.538;12.146;2022-11-14T00:12:36;6.90;99.90
4090;DHT22;2059;48.538;12.146;2022-11-14T00:17:40;6.80;99.90
4090;DHT22;2059;48.538;12.146;2022-11-14T00:22:41;6.70;99.90
4090;DHT22;2059;48.538;12.146;2022-11-14T00:27:43;6.60;99.90
4090;DHT22;2059;48.538;12.146;2022-11-14T00:32:46;6.40;99.90
4090;DHT22;2059;48.538;12.146;2022-11-14T00:37:49;6.30;99.90
4090;DHT22;2059;48.538;12.146;2022-11-14T00:42:51;6.30;99.90
4090;DHT22;2059;48.538;12.146;2022-11-14T00:47:54;6.10;99.90
4090;DHT22;2059;48.538;12.146;2022-11-14T00:52:55;6.10;99.90
4090;DHT22;2059;48.538;12.146;2022-11-14T00:57:57;6.20;99.90
4090;DHT22;2059;48.538;12.146;2022-11-14T01:03:00;6.20;99.90
4090;DHT22;2059;48.538;12.146;2022-11-14T01:08:02;6.20;99.90
4090;DHT22;2059;48.538;12.146;2022-11-14T01:13:04;6.30;99.90
4090;DHT22;2059;48.538;12.146;2022-11-14T01:18:10;6.30;99.90
4090;DHT22;2059;48.538;12.146;2022-11-14T01:23:14;6.30;99.90
4090;DHT22;2059;48.538;12.146;2022-11-14T01:28:18;6.30;99.90
4090;DHT22;2059;48.538;12.146;2022-11-14T01:33:21;6.20;99.90
4090;DHT22;2059;48.538;12.146;2022-11-14T01:38:23;6.20;99.90
4090;DHT22;2059;48.538;12.146;2022-11-14T01:43:30;6.10;99.90
4090;DHT22;2059;48.538;12.146;2022-11-14T01:48:39;6.20;99.90
4090;DHT22;2059;48.538;12.146;2022-11-14T01:53:42;6.10;99.90
4090;DHT22;2059;48.538;12.146;2022-11-14T01:58:48;6.10;99.90
4090;DHT22;2059;48.538;12.146;2022-11-14T02:03:54;6.10;99.90
4090;DHT22;2059;48.538;12.146;2022-11-14T02:08:58;6.00;99.90
4090;DHT22;2059;48.538;12.146;2022-11-14T02:14:01;5.90;99.90
4090;DHT22;2059;48.538;12.146;2022-11-14T02:19:05;5.90;99.90
4090;DHT22;2059;48.538;12.146;2022-11-14T02:24:09;5.80;99.90
4090;DHT22;2059;48.538;12.146;2022-11-14T02:29:12;5.80;99.90
4090;DHT22;2059;48.538;12.146;2022-11-14T02:34:14;5.80;99.90
4090;DHT22;2059;48.538;12.146;2022-11-14T02:39:20;5.90;99.90
4090;DHT22;2059;48.538;12.146;2022-11-14T02:44:22;6.00;99.90
4090;DHT22;2059;48.538;12.146;2022-11-14T02:49:24;5.90;99.90
4090;DHT22;2059;48.538;12.146;2022-11-14T02:54:27;5.90;99.90
4090;DHT22;2059;48.538;12.146;2022-11-14T02:59:29;5.90;99.90
4090;DHT22;2059;48.538;12.146;2022-11-14T03:04:31;5.90;99.90
4090;DHT22;2059;48.538;12.146;2022-11-14T03:09:34;5.80;99.90
4090;DHT22;2059;48.538;12.146;2022-11-14T03:14:36;5.80;99.90
4090;DHT22;2059;48.538;12.146;2022-11-14T03:19:37;5.80;99.90
4090;DHT22;2059;48.538;12.146;2022-11-14T03:24:41;5.80;99.90
4090;DHT22;2059;48.538;12.146;2022-11-14T03:29:42;5.90;99.90
4090;DHT22;2059;48.538;12.146;2022-11-14T03:34:44;5.80;99.90
4090;DHT22;2059;48.538;12.146;2022-11-14T03:39:47;5.90;99.90
4090;DHT22;2059;48.538;12.146;2022-11-14T03:44:49;5.80;99.90
4090;DHT22;2059;48.538;12.146;2022-11-14T03:49:51;5.70;99.90
4090;DHT22;2059;48.538;12.146;2022-11-14T03:54:54;5.80;99.90
4090;DHT22;2059;48.538;12.146;2022-11-14T03:59:56;5.80;99.90
4090;DHT22;2059;48.538;12.146;2022-11-14T04:04:58;5.80;99.90
4090;DHT22;2059;48.538;12.146;2022-11-14T04:10:01;5.70;99.90
4090;DHT22;2059;48.538;12.146;2022-11-14T04:15:03;5.70;99.90
4090;DHT22;2059;48.538;12.146;2022-11-14T04:20:06;5.80;99.90
4090;DHT22;2059;48.538;12.146;2022-11-14T04:25:09;5.80;99.90
4090;DHT22;2059;48.538;12.146;2022-11-14T04:30:11;6.00;99.90
4090;DHT22;2059;48.538;12.146;2022-11-14T04:35:14;6.00;99.90
4090;DHT22;2059;48.538;12.146;2022-11-14T04:40:17;6.00;99.90
4090;DHT22;2059;48.538;12.146;2022-11-14T04:45:19;5.90;99.90
4090;DHT22;2059;48.538;12.146;2022-11-14T04:50:21;5.90;99.90
4090;DHT22;2059;48.538;12.146;2022-11-14T04:55:24;6.00;99.90
4090;DHT22;2059;48.538;12.146;2022-11-14T05:00:26;6.10;99.90
4090;DHT22;2059;48.538;12.146;2022-11-14T05:05:27;5.90;99.90
4090;DHT22;2059;48.538;12.146;2022-11-14T05:10:31;5.90;99.90
4090;DHT22;2059;48.538;12.146;2022-11-14T05:15:32;5.80;99.90
4090;DHT22;2059;48.538;12.146;2022-11-14T05:20:34;6.00;99.90
4090;DHT22;2059;48.538;12.146;2022-11-14T05:25:38;6.00;99.90
4090;DHT22;2059;48.538;12.146;2022-11-14T05:30:39;5.90;99.90
4090;DHT22;2059;48.538;12.146;2022-11-14T05:35:41;6.10;99.90
4090;DHT22;2059;48.538;12.146;2022-11-14T05:40:44;5.90;99.90
4090;DHT22;2059;48.538;12.146;2022-11-14T05:45:46;5.80;99.90
4090;DHT22;2059;48.538;12.146;2022-11-14T05:50:48;5.90;99.90
4090;DHT22;2059;48.538;12.146;2022-11-14T05:56:01;5.90;99.90
4090;DHT22;2059;48.538;12.146;2022-11-14T06:01:05;5.90;99.90
4090;DHT22;2059;48.538;12.146;2022-11-14T06:06:08;5.90;99.90
4090;DHT22;2059;48.538;12.146;2022-11-14T06:11:14;5.90;99.90
4090;DHT22;2059;48.538;12.146;2022-11-14T06:16:17;5.80;99.90
4090;DHT22;2059;48.538;12.146;2022-11-14T06:21:20;5.80;99.90
4090;DHT22;2059;48.538;12.146;2022-11-14T06:26:25;5.80;99.90
4090;DHT22;2059;48.538;12.146;2022-11-14T06:31:29;5.60;99.90
4090;DHT22;2059;48.538;12.146;2022-11-14T06:36:31;5.70;99.90
4090;DHT22;2059;48.538;12.146;2022-11-14T06:41:34;5.60;99.90
4090;DHT22;2059;48.538;12.146;2022-11-14T06:46:36;5.80;99.90
4090;DHT22;2059;48.538;12.146;2022-11-14T06:51:38;6.00;99.90
4090;DHT22;2059;48.538;12.146;2022-11-14T06:56:41;5.90;99.90
4090;DHT22;2059;48.538;12.146;2022-11-14T07:01:43;5.90;99.90
4090;DHT22;2059;48.538;12.146;2022-11-14T07:06:45;5.90;99.90
4090;DHT22;2059;48.538;12.146;2022-11-14T07:11:48;5.90;99.90
4090;DHT22;2059;48.538;12.146;2022-11-14T07:16:50;5.80;99.90
4090;DHT22;2059;48.538;12.146;2022-11-14T07:21:52;6.10;99.90
4090;DHT22;2059;48.538;12.146;2022-11-14T07:26:55;6.00;99.90
4090;DHT22;2059;48.538;12.146;2022-11-14T07:31:57;6.00;99.90
4090;DHT22;2059;48.538;12.146;2022-11-14T07:36:59;5.90;99.90
4090;DHT22;2059;48.538;12.146;2022-11-14T07:42:02;6.10;99.90
4090;DHT22;2059;48.538;12.146;2022-11-14T07:47:04;6.30;99.90
4090;DHT22;2059;48.538;12.146;2022-11-14T07:52:05;6.30;99.90
4090;DHT22;2059;48.538;12.146;2022-11-14T07:57:09;6.30;99.90
4090;DHT22;2059;48.538;12.146;2022-11-14T08:02:12;6.20;99.90
4090;DHT22;2059;48.538;12.146;2022-11-14T08:07:14;6.30;99.90
4090;DHT22;2059;48.538;12.146;2022-11-14T08:12:18;6.30;99.90
4090;DHT22;2059;48.538;12.146;2022-11-14T08:17:20;6.50;99.90
4090;DHT22;2059;48.538;12.146;2022-11-14T08:22:22;6.50;99.90
4090;DHT22;2059;48.538;12.146;2022-11-14T08:27:25;6.50;99.90
4090;DHT22;2059;48.538;12.146;2022-11-14T08:32:27;6.40;99.90
4090;DHT22;2059;48.538;12.146;2022-11-14T08:37:29;6.40;99.90
4090;DHT22;2059;48.538;12.146;2022-11-14T08:42:33;6.40;99.90
4090;DHT22;2059;48.538;12.146;2022-11-14T08:47:34;6.40;99.90
4090;DHT22;2059;48.538;12.146;2022-11-14T08:52:36;6.50;99.90
4090;DHT22;2059;48.538;12.146;2022-11-14T08:57:40;6.70;99.90
4090;DHT22;2059;48.538;12.146;2022-11-14T09:02:41;7.00;99.90
4090;DHT22;2059;48.538;12.146;2022-11-14T09:07:43;7.10;99.90
4090;DHT22;2059;48.538;12.146;2022-11-14T09:12:46;7.40;99.90
4090;DHT22;2059;48.538;12.146;2022-11-14T09:17:51;7.60;99.90
4090;DHT22;2059;48.538;12.146;2022-11-14T09:22:54;8.10;99.90
4090;DHT22;2059;48.538;12.146;2022-11-14T09:28:03;8.70;99.90
4090;DHT22;2059;48.538;12.146;2022-11-14T09:33:05;9.30;99.90
4090;DHT22;2059;48.538;12.146;2022-11-14T09:38:09;9.80;99.90
4090;DHT22;2059;48.538;12.146;2022-11-14T09:43:31;10.10;99.90
4090;DHT22;2059;48.538;12.146;2022-11-14T09:48:39;10.30;99.60
4090;DHT22;2059;48.538;12.146;2022-11-14T09:53:46;10.20;99.70
4090;DHT22;2059;48.538;12.146;2022-11-14T09:58:50;10.20;99.90
4090;DHT22;2059;48.538;12.146;2022-11-14T10:04:00;10.60;99.80
4090;DHT22;2059;48.538;12.146;2022-11-14T10:14:59;11.10;99.00
4090;DHT22;2059;48.538;12.146;2022-11-14T10:20:13;11.50;98.90
4090;DHT22;2059;48.538;12.146;2022-11-14T10:25:22;11.70;98.50
4090;DHT22;2059;48.538;12.146;2022-11-14T10:30:31;12.20;98.20
4090;DHT22;2059;48.538;12.146;2022-11-14T10:35:39;12.50;97.70
4090;DHT22;2059;48.538;12.146;2022-11-14T10:40:45;12.30;97.40
4090;DHT22;2059;48.538;12.146;2022-11-14T10:45:52;11.80;98.00
4090;DHT22;2059;48.538;12.146;2022-11-14T10:50:57;11.60;98.50
4090;DHT22;2059;48.538;12.146;2022-11-14T10:55:59;11.50;98.50
4090;DHT22;2059;48.538;12.146;2022-11-14T11:01:33;11.40;98.90
4090;DHT22;2059;48.538;12.146;2022-11-14T11:06:35;11.30;99.30
4090;DHT22;2059;48.538;12.146;2022-11-14T11:11:39;11.30;99.70
4090;DHT22;2059;48.538;12.146;2022-11-14T11:16:45;11.50;99.30
4090;DHT22;2059;48.538;12.146;2022-11-14T11:21:49;11.90;99.30
4090;DHT22;2059;48.538;12.146;2022-11-14T11:27:12;12.00;99.00
4090;DHT22;2059;48.538;12.146;2022-11-14T11:32:24;11.90;99.30
4090;DHT22;2059;48.538;12.146;2022-11-14T11:37:29;11.90;99.40
4090;DHT22;2059;48.538;12.146;2022-11-14T11:42:35;12.00;99.50
4090;DHT22;2059;48.538;12.146;2022-11-14T11:47:40;12.30;99.20
4090;DHT22;2059;48.538;12.146;2022-11-14T11:52:48;12.50;99.20
4090;DHT22;2059;48.538;12.146;2022-11-14T11:58:00;12.50;99.30
4090;DHT22;2059;48.538;12.146;2022-11-14T12:03:04;12.60;99.40
4090;DHT22;2059;48.538;12.146;2022-11-14T12:08:16;12.90;99.30
4090;DHT22;2059;48.538;12.146;2022-11-14T12:19:21;13.90;98.60
4090;DHT22;2059;48.538;12.146;2022-11-14T12:35:19;14.70;96.60
4090;DHT22;2059;48.538;12.146;2022-11-14T12:40:24;14.40;97.40
4090;DHT22;2059;48.538;12.146;2022-11-14T12:45:55;14.30;97.90
4090;DHT22;2059;48.538;12.146;2022-11-14T12:50:59;14.40;98.10
4090;DHT22;2059;48.538;12.146;2022-11-14T13:01:44;14.40;98.20
4090;DHT22;2059;48.538;12.146;2022-11-14T13:06:59;14.40;97.90
4090;DHT22;2059;48.538;12.146;2022-11-14T13:12:31;14.40;98.00
4090;DHT22;2059;48.538;12.146;2022-11-14T13:18:02;14.20;98.10
4090;DHT22;2059;48.538;12.146;2022-11-14T13:23:55;14.20;97.90
4090;DHT22;2059;48.538;12.146;2022-11-14T13:28:57;14.10;98.30
4090;DHT22;2059;48.538;12.146;2022-11-14T13:34:00;13.90;98.50
4090;DHT22;2059;48.538;12.146;2022-11-14T13:39:28;14.00;98.40
4090;DHT22;2059;48.538;12.146;2022-11-14T13:44:58;13.90;98.10
4090;DHT22;2059;48.538;12.146;2022-11-14T13:50:05;13.80;98.10
4090;DHT22;2059;48.538;12.146;2022-11-14T13:55:18;13.70;98.30
4090;DHT22;2059;48.538;12.146;2022-11-14T14:00:20;13.60;98.30
4090;DHT22;2059;48.538;12.146;2022-11-14T14:05:40;13.40;98.50
4090;DHT22;2059;48.538;12.146;2022-11-14T14:10:59;13.40;99.00
4090;DHT22;2059;48.538;12.146;2022-11-14T14:16:08;13.40;98.70
4090;DHT22;2059;48.538;12.146;2022-11-14T14:21:23;13.40;98.80
4090;DHT22;2059;48.538;12.146;2022-11-14T14:26:34;13.40;99.00
4090;DHT22;2059;48.538;12.146;2022-11-14T14:31:40;13.30;98.90
4090;DHT22;2059;48.538;12.146;2022-11-14T14:36:48;13.30;98.70
4090;DHT22;2059;48.538;12.146;2022-11-14T14:41:53;13.30;98.20
4090;DHT22;2059;48.538;12.146;2022-11-14T14:46:56;13.10;98.10
4090;DHT22;2059;48.538;12.146;2022-11-14T14:51:58;13.00;98.30
4090;DHT22;2059;48.538;12.146;2022-11-14T14:57:01;13.00;98.40
4090;DHT22;2059;48.538;12.146;2022-11-14T15:02:10;12.80;98.60
4090;DHT22;2059;48.538;12.146;2022-11-14T15:07:19;12.70;98.70
4090;DHT22;2059;48.538;12.146;2022-11-14T15:12:24;12.60;98.90
4090;DHT22;2059;48.538;12.146;2022-11-14T15:17:27;12.40;99.10
4090;DHT22;2059;48.538;12.146;2022-11-14T15:22:30;12.30;99.30
4090;DHT22;2059;48.538;12.146;2022-11-14T15:27:44;12.20;99.50
4090;DHT22;2059;48.538;12.146;2022-11-14T15:32:47;12.10;99.70
4090;DHT22;2059;48.538;12.146;2022-11-14T15:37:59;11.90;99.70
4090;DHT22;2059;48.538;12.146;2022-11-14T15:43:44;11.80;99.80
4090;DHT22;2059;48.538;12.146;2022-11-14T15:48:48;11.70;99.80
4090;DHT22;2059;48.538;12.146;2022-11-14T15:53:50;11.50;99.90
4090;DHT22;2059;48.538;12.146;2022-11-14T15:58:55;11.30;99.90
4090;DHT22;2059;48.538;12.146;2022-11-14T16:03:57;11.20;99.90
4090;DHT22;2059;48.538;12.146;2022-11-14T16:09:01;11.10;99.90
4090;DHT22;2059;48.538;12.146;2022-11-14T16:14:04;11.00;99.90
4090;DHT22;2059;48.538;12.146;2022-11-14T16:19:06;10.80;99.90
4090;DHT22;2059;48.538;12.146;2022-11-14T16:24:14;10.70;99.90
4090;DHT22;2059;48.538;12.146;2022-11-14T16:29:18;10.60;99.90
4090;DHT22;2059;48.538;12.146;2022-11-14T16:34:22;10.60;99.90
4090;DHT22;2059;48.538;12.146;2022-11-14T16:39:25;10.40;99.90
4090;DHT22;2059;48.538;12.146;2022-11-14T16:44:28;10.30;99.90
4090;DHT22;2059;48.538;12.146;2022-11-14T16:49:30;10.20;99.90
4090;DHT22;2059;48.538;12.146;2022-11-14T16:54:32;10.10;99.90
4090;DHT22;2059;48.538;12.146;2022-11-14T16:59:35;10.00;99.90
4090;DHT22;2059;48.538;12.146;2022-11-14T17:04:37;9.90;99.90
4090;DHT22;2059;48.538;12.146;2022-11-14T17:09:39;9.90;99.90
4090;DHT22;2059;48.538;12.146;2022-11-14T17:14:42;9.80;99.90
4090;DHT22;2059;48.538;12.146;2022-11-14T17:19:44;9.70;99.90
4090;DHT22;2059;48.538;12.146;2022-11-14T17:24:46;9.70;99.90
4090;DHT22;2059;48.538;12.146;2022-11-14T17:29:49;9.60;99.90
4090;DHT22;2059;48.538;12.146;2022-11-14T17:34:51;9.50;99.90
4090;DHT22;2059;48.538;12.146;2022-11-14T17:39:53;9.50;99.90
4090;DHT22;2059;48.538;12.146;2022-11-14T17:44:56;9.40;99.90
4090;DHT22;2059;48.538;12.146;2022-11-14T17:50:00;9.30;99.90
4090;DHT22;2059;48.538;12.146;2022-11-14T17:55:02;9.20;99.90
4090;DHT22;2059;48.538;12.146;2022-11-14T18:00:07;9.30;99.90
4090;DHT22;2059;48.538;12.146;2022-11-14T18:05:09;9.10;99.90
4090;DHT22;2059;48.538;12.146;2022-11-14T18:10:11;9.10;99.90
4090;DHT22;2059;48.538;12.146;2022-11-14T18:15:15;9.10;99.90
4090;DHT22;2059;48.538;12.146;2022-11-14T18:20:17;9.00;99.90
4090;DHT22;2059;48.538;12.146;2022-11-14T18:25:18;8.90;99.90
4090;DHT22;2059;48.538;12.146;2022-11-14T18:30:22;9.00;99.90
4090;DHT22;2059;48.538;12.146;2022-11-14T18:35:23;8.90;99.90
4090;DHT22;2059;48.538;12.146;2022-11-14T18:40:26;8.80;99.90
4090;DHT22;2059;48.538;12.146;2022-11-14T18:45:29;8.80;99.90
4090;DHT22;2059;48.538;12.146;2022-11-14T18:50:31;8.70;99.90
4090;DHT22;2059;48.538;12.146;2022-11-14T18:55:36;8.70;99.90
4090;DHT22;2059;48.538;12.146;2022-11-14T19:00:39;8.60;99.90
4090;DHT22;2059;48.538;12.146;2022-11-14T19:05:41;8.60;99.90
4090;DHT22;2059;48.538;12.146;2022-11-14T19:10:43;8.50;99.90
4090;DHT22;2059;48.538;12.146;2022-11-14T19:15:46;8.50;99.90
4090;DHT22;2059;48.538;12.146;2022-11-14T19:20:55;8.40;99.90
4090;DHT22;2059;48.538;12.146;2022-11-14T19:25:58;8.40;99.90
4090;DHT22;2059;48.538;12.146;2022-11-14T19:31:03;8.40;99.90
4090;DHT22;2059;48.538;12.146;2022-11-14T19:36:06;8.40;99.90
4090;DHT22;2059;48.538;12.146;2022-11-14T19:41:10;8.40;99.90
4090;DHT22;2059;48.538;12.146;2022-11-14T19:46:15;8.40;99.90
4090;DHT22;2059;48.538;12.146;2022-11-14T19:51:17;8.30;99.90
4090;DHT22;2059;48.538;12.146;2022-11-14T19:56:20;8.40;99.90
4090;DHT22;2059;48.538;12.146;2022-11-14T20:01:25;8.40;99.90
4090;DHT22;2059;48.538;12.146;2022-11-14T20:06:29;8.40;99.90
4090;DHT22;2059;48.538;12.146;2022-11-14T20:11:33;8.30;99.90
4090;DHT22;2059;48.538;12.146;2022-11-14T20:16:37;8.20;99.90
4090;DHT22;2059;48.538;12.146;2022-11-14T20:21:39;8.20;99.90
4090;DHT22;2059;48.538;12.146;2022-11-14T20:26:40;8.10;99.90
4090;DHT22;2059;48.538;12.146;2022-11-14T20:31:43;8.00;99.90
4090;DHT22;2059;48.538;12.146;2022-11-14T20:36:45;8.00;99.90
4090;DHT22;2059;48.538;12.146;2022-11-14T20:41:47;8.00;99.90
4090;DHT22;2059;48.538;12.146;2022-11-14T20:46:50;7.90;99.90
4090;DHT22;2059;48.538;12.146;2022-11-14T20:51:54;7.90;99.90
4090;DHT22;2059;48.538;12.146;2022-11-14T20:56:56;8.00;99.90
4090;DHT22;2059;48.538;12.146;2022-11-14T21:02:00;7.90;99.90
4090;DHT22;2059;48.538;12.146;2022-11-14T21:07:02;7.80;99.90
4090;DHT22;2059;48.538;12.146;2022-11-14T21:12:04;7.80;99.90
4090;DHT22;2059;48.538;12.146;2022-11-14T21:17:07;7.70;99.90
4090;DHT22;2059;48.538;12.146;2022-11-14T21:22:09;7.60;99.90
4090;DHT22;2059;48.538;12.146;2022-11-14T21:27:12;7.50;99.90
4090;DHT22;2059;48.538;12.146;2022-11-14T21:32:15;7.40;99.90
4090;DHT22;2059;48.538;12.146;2022-11-14T21:37:17;7.50;99.90
4090;DHT22;2059;48.538;12.146;2022-11-14T21:42:19;7.50;99.90
4090;DHT22;2059;48.538;12.146;2022-11-14T21:47:22;7.40;99.90
4090;DHT22;2059;48.538;12.146;2022-11-14T21:52:24;7.40;99.90
4090;DHT22;2059;48.538;12.146;2022-11-14T21:57:26;7.40;99.90
4090;DHT22;2059;48.538;12.146;2022-11-14T22:02:29;7.40;99.90
4090;DHT22;2059;48.538;12.146;2022-11-14T22:07:48;7.40;99.90
4090;DHT22;2059;48.538;12.146;2022-11-14T22:12:50;7.30;99.90
4090;DHT22;2059;48.538;12.146;2022-11-14T22:17:54;7.20;99.90
4090;DHT22;2059;48.538;12.146;2022-11-14T22:22:56;7.20;99.90
4090;DHT22;2059;48.538;12.146;2022-11-14T22:27:58;7.10;99.90
4090;DHT22;2059;48.538;12.146;2022-11-14T22:33:01;7.00;99.90
4090;DHT22;2059;48.538;12.146;2022-11-14T22:38:03;6.90;99.90
4090;DHT22;2059;48.538;12.146;2022-11-14T22:43:04;7.00;99.90
4090;DHT22;2059;48.538;12.146;2022-11-14T22:48:08;7.00;99.90
4090;DHT22;2059;48.538;12.146;2022-11-14T22:53:10;6.90;99.90
4090;DHT22;2059;48.538;12.146;2022-11-14T22:58:12;6.80;99.90
4090;DHT22;2059;48.538;12.146;2022-11-14T23:03:16;6.90;99.90
4090;DHT22;2059;48.538;12.146;2022-11-14T23:08:19;6.90;99.90
4090;DHT22;2059;48.538;12.146;2022-11-14T23:13:21;6.70;99.90
4090;DHT22;2059;48.538;12.146;2022-11-14T23:18:24;6.80;99.90
4090;DHT22;2059;48.538;12.146;2022-11-14T23:23:26;6.80;99.90
4090;DHT22;2059;48.538;12.146;2022-11-14T23:28:28;6.70;99.90
4090;DHT22;2059;48.538;12.146;2022-11-14T23:33:32;6.60;99.90
4090;DHT22;2059;48.538;12.146;2022-11-14T23:38:34;6.60;99.90
4090;DHT22;2059;48.538;12.146;2022-11-14T23:43:36;6.70;99.90
4090;DHT22;2059;48.538;12.146;2022-11-14T23:48:39;6.60;99.90
4090;DHT22;2059;48.538;12.146;2022-11-14T23:53:41;6.60;99.90
4090;DHT22;2059;48.538;12.146;2022-11-14T23:58:43;6.60;99.90
